sensor_id;sensor_type;location;lat;lon;timestamp;P1;durP1;ratioP1;P2;durP2;ratioP2
45136;SDS011;30894;51.740;19.498;2023-11-18T00:01:49;12.00;;;5.43;;
45136;SDS011;30894;51.740;19.498;2023-11-18T00:04:19;11.90;;;5.65;;
45136;SDS011;30894;51.740;19.498;2023-11-18T00:06:47;12.43;;;5.55;;
45136;SDS011;30894;51.740;19.498;2023-11-18T00:09:13;13.75;;;5.00;;
45136;SDS011;30894;51.740;19.498;2023-11-18T00:11:40;14.13;;;5.32;;
45136;SDS011;30894;51.740;19.498;2023-11-18T00:14:08;15.80;;;5.60;;
45136;SDS011;30894;51.740;19.498;2023-11-18T00:16:38;16.23;;;5.22;;
45136;SDS011;30894;51.740;19.498;2023-11-18T00:19:07;19.02;;;6.22;;
45136;SDS011;30894;51.740;19.498;2023-11-18T00:21:34;11.05;;;5.40;;
45136;SDS011;30894;51.740;19.498;2023-11-18T00:24:01;12.18;;;5.75;;
45136;SDS011;30894;51.740;19.498;2023-11-18T00:26:31;11.23;;;5.65;;
45136;SDS011;30894;51.740;19.498;2023-11-18T00:28:59;14.82;;;5.03;;
45136;SDS011;30894;51.740;19.498;2023-11-18T00:31:28;14.27;;;5.30;;
45136;SDS011;30894;51.740;19.498;2023-11-18T00:33:55;13.13;;;4.80;;
45136;SDS011;30894;51.740;19.498;2023-11-18T00:36:22;13.30;;;5.13;;
45136;SDS011;30894;51.740;19.498;2023-11-18T00:38:50;13.98;;;6.60;;
45136;SDS011;30894;51.740;19.498;2023-11-18T00:41:20;15.45;;;6.70;;
45136;SDS011;30894;51.740;19.498;2023-11-18T00:43:48;16.15;;;7.10;;
45136;SDS011;30894;51.740;19.498;2023-11-18T00:46:22;14.57;;;6.18;;
45136;SDS011;30894;51.740;19.498;2023-11-18T00:48:52;13.55;;;6.40;;
45136;SDS011;30894;51.740;19.498;2023-11-18T00:51:19;14.95;;;6.63;;
45136;SDS011;30894;51.740;19.498;2023-11-18T00:53:49;14.52;;;5.88;;
45136;SDS011;30894;51.740;19.498;2023-11-18T00:56:16;13.23;;;6.30;;
45136;SDS011;30894;51.740;19.498;2023-11-18T00:59:03;13.70;;;5.85;;
45136;SDS011;30894;51.740;19.498;2023-11-18T01:01:31;13.68;;;6.22;;
45136;SDS011;30894;51.740;19.498;2023-11-18T01:04:09;11.75;;;5.40;;
45136;SDS011;30894;51.740;19.498;2023-11-18T01:06:38;11.32;;;5.43;;
45136;SDS011;30894;51.740;19.498;2023-11-18T01:09:08;17.70;;;6.18;;
45136;SDS011;30894;51.740;19.498;2023-11-18T01:11:35;13.55;;;6.32;;
45136;SDS011;30894;51.740;19.498;2023-11-18T01:14:03;14.45;;;5.97;;
45136;SDS011;30894;51.740;19.498;2023-11-18T01:16:29;14.13;;;6.50;;
45136;SDS011;30894;51.740;19.498;2023-11-18T01:18:57;20.00;;;7.00;;
45136;SDS011;30894;51.740;19.498;2023-11-18T01:21:25;16.40;;;7.03;;
45136;SDS011;30894;51.740;19.498;2023-11-18T01:23:53;14.65;;;6.18;;
45136;SDS011;30894;51.740;19.498;2023-11-18T01:26:20;13.52;;;6.25;;
45136;SDS011;30894;51.740;19.498;2023-11-18T01:28:54;18.60;;;6.40;;
45136;SDS011;30894;51.740;19.498;2023-11-18T01:31:21;23.55;;;9.65;;
45136;SDS011;30894;51.740;19.498;2023-11-18T01:33:49;24.33;;;9.52;;
45136;SDS011;30894;51.740;19.498;2023-11-18T01:36:24;23.63;;;8.90;;
45136;SDS011;30894;51.740;19.498;2023-11-18T01:38:54;20.58;;;9.70;;
45136;SDS011;30894;51.740;19.498;2023-11-18T01:41:21;19.85;;;8.45;;
45136;SDS011;30894;51.740;19.498;2023-11-18T01:43:49;17.85;;;7.95;;
45136;SDS011;30894;51.740;19.498;2023-11-18T01:46:19;18.85;;;7.65;;
45136;SDS011;30894;51.740;19.498;2023-11-18T01:48:50;20.10;;;7.72;;
45136;SDS011;30894;51.740;19.498;2023-11-18T01:51:17;17.42;;;7.93;;
45136;SDS011;30894;51.740;19.498;2023-11-18T01:56:22;19.88;;;8.32;;
45136;SDS011;30894;51.740;19.498;2023-11-18T01:58:51;24.60;;;10.20;;
45136;SDS011;30894;51.740;19.498;2023-11-18T02:03:53;18.77;;;7.10;;
45136;SDS011;30894;51.740;19.498;2023-11-18T02:06:22;26.25;;;9.60;;
45136;SDS011;30894;51.740;19.498;2023-11-18T02:08:50;34.53;;;10.77;;
45136;SDS011;30894;51.740;19.498;2023-11-18T02:11:18;27.42;;;10.18;;
45136;SDS011;30894;51.740;19.498;2023-11-18T02:13:58;27.05;;;9.02;;
45136;SDS011;30894;51.740;19.498;2023-11-18T02:16:31;26.13;;;9.70;;
45136;SDS011;30894;51.740;19.498;2023-11-18T02:19:03;20.50;;;9.00;;
45136;SDS011;30894;51.740;19.498;2023-11-18T02:21:46;28.30;;;10.93;;
45136;SDS011;30894;51.740;19.498;2023-11-18T02:24:24;28.42;;;10.70;;
45136;SDS011;30894;51.740;19.498;2023-11-18T02:27:00;28.67;;;9.77;;
45136;SDS011;30894;51.740;19.498;2023-11-18T02:29:27;24.00;;;9.30;;
45136;SDS011;30894;51.740;19.498;2023-11-18T02:37:39;25.80;;;9.30;;
45136;SDS011;30894;51.740;19.498;2023-11-18T02:40:11;24.63;;;8.77;;
45136;SDS011;30894;51.740;19.498;2023-11-18T02:42:45;29.73;;;9.25;;
45136;SDS011;30894;51.740;19.498;2023-11-18T02:45:15;25.25;;;10.00;;
45136;SDS011;30894;51.740;19.498;2023-11-18T02:47:46;28.50;;;8.95;;
45136;SDS011;30894;51.740;19.498;2023-11-18T02:50:14;22.33;;;9.80;;
45136;SDS011;30894;51.740;19.498;2023-11-18T02:52:45;23.50;;;8.13;;
45136;SDS011;30894;51.740;19.498;2023-11-18T02:55:13;29.98;;;8.07;;
45136;SDS011;30894;51.740;19.498;2023-11-18T02:57:41;16.08;;;6.82;;
45136;SDS011;30894;51.740;19.498;2023-11-18T03:00:12;16.77;;;6.30;;
45136;SDS011;30894;51.740;19.498;2023-11-18T03:02:47;16.20;;;6.68;;
45136;SDS011;30894;51.740;19.498;2023-11-18T03:05:17;11.00;;;5.68;;
45136;SDS011;30894;51.740;19.498;2023-11-18T03:07:47;17.42;;;5.63;;
45136;SDS011;30894;51.740;19.498;2023-11-18T03:10:20;13.85;;;5.13;;
45136;SDS011;30894;51.740;19.498;2023-11-18T03:12:48;13.98;;;5.80;;
45136;SDS011;30894;51.740;19.498;2023-11-18T03:15:17;11.52;;;5.10;;
45136;SDS011;30894;51.740;19.498;2023-11-18T03:17:46;13.45;;;4.85;;
45136;SDS011;30894;51.740;19.498;2023-11-18T03:20:14;11.15;;;4.38;;
45136;SDS011;30894;51.740;19.498;2023-11-18T03:22:43;11.98;;;5.50;;
45136;SDS011;30894;51.740;19.498;2023-11-18T03:25:14;13.38;;;5.53;;
45136;SDS011;30894;51.740;19.498;2023-11-18T03:27:40;13.75;;;5.43;;
45136;SDS011;30894;51.740;19.498;2023-11-18T03:30:06;10.68;;;4.75;;
45136;SDS011;30894;51.740;19.498;2023-11-18T03:32:35;12.15;;;5.55;;
45136;SDS011;30894;51.740;19.498;2023-11-18T03:35:03;11.13;;;4.70;;
45136;SDS011;30894;51.740;19.498;2023-11-18T03:37:37;9.00;;;4.47;;
45136;SDS011;30894;51.740;19.498;2023-11-18T03:40:16;14.63;;;4.95;;
45136;SDS011;30894;51.740;19.498;2023-11-18T03:42:43;16.08;;;5.78;;
45136;SDS011;30894;51.740;19.498;2023-11-18T03:45:12;16.58;;;6.30;;
45136;SDS011;30894;51.740;19.498;2023-11-18T03:47:40;11.63;;;5.57;;
45136;SDS011;30894;51.740;19.498;2023-11-18T03:50:06;11.50;;;5.85;;
45136;SDS011;30894;51.740;19.498;2023-11-18T03:52:37;14.40;;;6.10;;
45136;SDS011;30894;51.740;19.498;2023-11-18T03:55:03;14.50;;;6.13;;
45136;SDS011;30894;51.740;19.498;2023-11-18T03:57:31;18.77;;;6.95;;
45136;SDS011;30894;51.740;19.498;2023-11-18T03:59:57;15.27;;;6.40;;
45136;SDS011;30894;51.740;19.498;2023-11-18T04:02:23;16.42;;;6.82;;
45136;SDS011;30894;51.740;19.498;2023-11-18T04:04:50;15.00;;;5.88;;
45136;SDS011;30894;51.740;19.498;2023-11-18T04:07:16;13.73;;;6.30;;
45136;SDS011;30894;51.740;19.498;2023-11-18T04:09:42;10.93;;;5.30;;
45136;SDS011;30894;51.740;19.498;2023-11-18T04:12:09;8.77;;;4.88;;
45136;SDS011;30894;51.740;19.498;2023-11-18T04:14:36;10.07;;;4.70;;
45136;SDS011;30894;51.740;19.498;2023-11-18T04:17:03;11.27;;;4.82;;
45136;SDS011;30894;51.740;19.498;2023-11-18T04:19:29;9.13;;;4.05;;
45136;SDS011;30894;51.740;19.498;2023-11-18T04:21:56;7.60;;;4.15;;
45136;SDS011;30894;51.740;19.498;2023-11-18T04:24:23;12.32;;;5.13;;
45136;SDS011;30894;51.740;19.498;2023-11-18T04:26:50;11.82;;;4.95;;
45136;SDS011;30894;51.740;19.498;2023-11-18T04:29:16;13.00;;;5.28;;
45136;SDS011;30894;51.740;19.498;2023-11-18T04:31:44;9.68;;;4.88;;
45136;SDS011;30894;51.740;19.498;2023-11-18T04:34:11;9.52;;;5.00;;
45136;SDS011;30894;51.740;19.498;2023-11-18T04:36:40;9.77;;;5.03;;
45136;SDS011;30894;51.740;19.498;2023-11-18T04:39:10;17.13;;;6.20;;
45136;SDS011;30894;51.740;19.498;2023-11-18T04:41:37;8.73;;;4.70;;
45136;SDS011;30894;51.740;19.498;2023-11-18T04:44:06;8.45;;;4.03;;
45136;SDS011;30894;51.740;19.498;2023-11-18T04:46:33;9.15;;;3.72;;
45136;SDS011;30894;51.740;19.498;2023-11-18T04:49:02;7.03;;;3.42;;
45136;SDS011;30894;51.740;19.498;2023-11-18T04:51:29;6.18;;;3.13;;
45136;SDS011;30894;51.740;19.498;2023-11-18T04:53:55;7.18;;;3.53;;
45136;SDS011;30894;51.740;19.498;2023-11-18T04:56:24;6.60;;;3.13;;
45136;SDS011;30894;51.740;19.498;2023-11-18T04:58:50;6.10;;;3.10;;
45136;SDS011;30894;51.740;19.498;2023-11-18T05:01:17;5.78;;;3.28;;
45136;SDS011;30894;51.740;19.498;2023-11-18T05:03:44;4.72;;;2.60;;
45136;SDS011;30894;51.740;19.498;2023-11-18T05:06:16;6.43;;;3.33;;
45136;SDS011;30894;51.740;19.498;2023-11-18T05:08:48;5.07;;;3.65;;
45136;SDS011;30894;51.740;19.498;2023-11-18T05:11:15;9.00;;;3.38;;
45136;SDS011;30894;51.740;19.498;2023-11-18T05:13:41;4.10;;;2.75;;
45136;SDS011;30894;51.740;19.498;2023-11-18T05:16:08;6.57;;;3.63;;
45136;SDS011;30894;51.740;19.498;2023-11-18T05:18:41;4.97;;;2.97;;
45136;SDS011;30894;51.740;19.498;2023-11-18T05:21:09;7.25;;;3.45;;
45136;SDS011;30894;51.740;19.498;2023-11-18T05:23:36;6.75;;;3.50;;
45136;SDS011;30894;51.740;19.498;2023-11-18T05:26:03;6.88;;;3.55;;
45136;SDS011;30894;51.740;19.498;2023-11-18T05:28:34;6.57;;;3.15;;
45136;SDS011;30894;51.740;19.498;2023-11-18T05:31:01;7.07;;;3.85;;
45136;SDS011;30894;51.740;19.498;2023-11-18T05:33:28;8.05;;;3.97;;
45136;SDS011;30894;51.740;19.498;2023-11-18T05:35:56;7.47;;;3.30;;
45136;SDS011;30894;51.740;19.498;2023-11-18T05:38:25;8.48;;;3.83;;
45136;SDS011;30894;51.740;19.498;2023-11-18T05:40:53;7.30;;;2.97;;
45136;SDS011;30894;51.740;19.498;2023-11-18T05:43:27;8.20;;;4.18;;
45136;SDS011;30894;51.740;19.498;2023-11-18T05:46:06;7.65;;;3.92;;
45136;SDS011;30894;51.740;19.498;2023-11-18T05:48:41;7.45;;;4.47;;
45136;SDS011;30894;51.740;19.498;2023-11-18T05:51:11;7.90;;;4.05;;
45136;SDS011;30894;51.740;19.498;2023-11-18T05:53:42;9.93;;;4.43;;
45136;SDS011;30894;51.740;19.498;2023-11-18T05:56:13;8.43;;;3.90;;
45136;SDS011;30894;51.740;19.498;2023-11-18T05:58:42;9.88;;;4.95;;
45136;SDS011;30894;51.740;19.498;2023-11-18T06:01:11;10.63;;;4.32;;
45136;SDS011;30894;51.740;19.498;2023-11-18T06:03:41;6.72;;;3.65;;
45136;SDS011;30894;51.740;19.498;2023-11-18T06:06:10;6.65;;;3.53;;
45136;SDS011;30894;51.740;19.498;2023-11-18T06:08:38;8.10;;;3.63;;
45136;SDS011;30894;51.740;19.498;2023-11-18T06:11:12;12.20;;;4.68;;
45136;SDS011;30894;51.740;19.498;2023-11-18T06:13:45;8.13;;;3.75;;
45136;SDS011;30894;51.740;19.498;2023-11-18T06:16:16;7.75;;;4.13;;
45136;SDS011;30894;51.740;19.498;2023-11-18T06:18:49;8.95;;;4.60;;
45136;SDS011;30894;51.740;19.498;2023-11-18T06:21:19;6.75;;;3.65;;
45136;SDS011;30894;51.740;19.498;2023-11-18T06:23:50;8.75;;;3.90;;
45136;SDS011;30894;51.740;19.498;2023-11-18T06:26:21;12.40;;;3.50;;
45136;SDS011;30894;51.740;19.498;2023-11-18T06:28:48;7.90;;;3.95;;
45136;SDS011;30894;51.740;19.498;2023-11-18T06:31:14;9.52;;;4.15;;
45136;SDS011;30894;51.740;19.498;2023-11-18T06:33:41;10.27;;;4.38;;
45136;SDS011;30894;51.740;19.498;2023-11-18T06:36:09;5.70;;;3.38;;
45136;SDS011;30894;51.740;19.498;2023-11-18T06:38:39;9.45;;;3.78;;
45136;SDS011;30894;51.740;19.498;2023-11-18T06:41:12;9.30;;;4.13;;
45136;SDS011;30894;51.740;19.498;2023-11-18T06:43:40;11.43;;;4.05;;
45136;SDS011;30894;51.740;19.498;2023-11-18T06:46:18;8.43;;;3.75;;
45136;SDS011;30894;51.740;19.498;2023-11-18T06:48:59;6.18;;;2.85;;
45136;SDS011;30894;51.740;19.498;2023-11-18T06:51:33;5.95;;;3.35;;
45136;SDS011;30894;51.740;19.498;2023-11-18T06:54:00;8.48;;;4.30;;
45136;SDS011;30894;51.740;19.498;2023-11-18T06:56:34;7.78;;;3.83;;
45136;SDS011;30894;51.740;19.498;2023-11-18T06:59:10;5.72;;;3.28;;
45136;SDS011;30894;51.740;19.498;2023-11-18T07:01:39;9.63;;;4.18;;
45136;SDS011;30894;51.740;19.498;2023-11-18T07:04:06;6.65;;;3.38;;
45136;SDS011;30894;51.740;19.498;2023-11-18T07:06:38;6.63;;;3.55;;
45136;SDS011;30894;51.740;19.498;2023-11-18T07:09:04;6.70;;;3.22;;
45136;SDS011;30894;51.740;19.498;2023-11-18T07:11:41;7.38;;;3.10;;
45136;SDS011;30894;51.740;19.498;2023-11-18T07:14:09;6.05;;;3.30;;
45136;SDS011;30894;51.740;19.498;2023-11-18T07:16:39;5.63;;;2.72;;
45136;SDS011;30894;51.740;19.498;2023-11-18T07:19:06;4.38;;;2.83;;
45136;SDS011;30894;51.740;19.498;2023-11-18T07:21:33;6.03;;;2.97;;
45136;SDS011;30894;51.740;19.498;2023-11-18T07:24:00;9.52;;;3.95;;
45136;SDS011;30894;51.740;19.498;2023-11-18T07:26:28;5.63;;;3.50;;
45136;SDS011;30894;51.740;19.498;2023-11-18T07:28:54;9.27;;;4.20;;
45136;SDS011;30894;51.740;19.498;2023-11-18T07:31:21;5.90;;;3.03;;
45136;SDS011;30894;51.740;19.498;2023-11-18T07:33:50;6.65;;;3.55;;
45136;SDS011;30894;51.740;19.498;2023-11-18T07:36:19;10.13;;;4.55;;
45136;SDS011;30894;51.740;19.498;2023-11-18T07:38:46;6.72;;;3.45;;
45136;SDS011;30894;51.740;19.498;2023-11-18T07:41:13;7.18;;;3.00;;
45136;SDS011;30894;51.740;19.498;2023-11-18T07:43:51;8.75;;;3.90;;
45136;SDS011;30894;51.740;19.498;2023-11-18T07:46:22;8.13;;;3.87;;
45136;SDS011;30894;51.740;19.498;2023-11-18T07:48:49;8.45;;;3.60;;
45136;SDS011;30894;51.740;19.498;2023-11-18T07:51:18;7.80;;;3.33;;
45136;SDS011;30894;51.740;19.498;2023-11-18T07:53:50;7.57;;;3.38;;
45136;SDS011;30894;51.740;19.498;2023-11-18T07:56:16;8.90;;;3.63;;
45136;SDS011;30894;51.740;19.498;2023-11-18T07:58:43;6.30;;;2.83;;
45136;SDS011;30894;51.740;19.498;2023-11-18T08:01:13;6.95;;;3.20;;
45136;SDS011;30894;51.740;19.498;2023-11-18T08:03:43;7.30;;;4.22;;
45136;SDS011;30894;51.740;19.498;2023-11-18T08:06:12;5.85;;;3.80;;
45136;SDS011;30894;51.740;19.498;2023-11-18T08:08:39;5.50;;;2.90;;
45136;SDS011;30894;51.740;19.498;2023-11-18T08:11:07;7.95;;;3.85;;
45136;SDS011;30894;51.740;19.498;2023-11-18T08:13:36;9.77;;;4.40;;
45136;SDS011;30894;51.740;19.498;2023-11-18T08:16:02;7.93;;;4.05;;
45136;SDS011;30894;51.740;19.498;2023-11-18T08:18:29;9.27;;;3.78;;
45136;SDS011;30894;51.740;19.498;2023-11-18T08:20:57;6.63;;;3.85;;
45136;SDS011;30894;51.740;19.498;2023-11-18T08:23:30;8.93;;;4.57;;
45136;SDS011;30894;51.740;19.498;2023-11-18T08:25:57;6.05;;;2.97;;
45136;SDS011;30894;51.740;19.498;2023-11-18T08:28:24;8.45;;;3.92;;
45136;SDS011;30894;51.740;19.498;2023-11-18T08:30:54;6.88;;;4.07;;
45136;SDS011;30894;51.740;19.498;2023-11-18T08:33:20;7.10;;;3.28;;
45136;SDS011;30894;51.740;19.498;2023-11-18T08:35:49;8.30;;;4.13;;
45136;SDS011;30894;51.740;19.498;2023-11-18T08:38:16;6.68;;;4.13;;
45136;SDS011;30894;51.740;19.498;2023-11-18T08:40:43;5.43;;;3.60;;
45136;SDS011;30894;51.740;19.498;2023-11-18T08:43:11;7.13;;;4.55;;
45136;SDS011;30894;51.740;19.498;2023-11-18T08:45:40;8.75;;;4.13;;
45136;SDS011;30894;51.740;19.498;2023-11-18T08:48:09;6.78;;;4.15;;
45136;SDS011;30894;51.740;19.498;2023-11-18T08:50:36;9.27;;;4.70;;
45136;SDS011;30894;51.740;19.498;2023-11-18T08:53:05;5.70;;;3.67;;
45136;SDS011;30894;51.740;19.498;2023-11-18T08:55:36;9.13;;;4.30;;
45136;SDS011;30894;51.740;19.498;2023-11-18T08:58:07;7.32;;;4.20;;
45136;SDS011;30894;51.740;19.498;2023-11-18T09:00:46;7.28;;;4.40;;
45136;SDS011;30894;51.740;19.498;2023-11-18T09:03:17;8.05;;;4.35;;
45136;SDS011;30894;51.740;19.498;2023-11-18T09:05:58;5.03;;;2.90;;
45136;SDS011;30894;51.740;19.498;2023-11-18T09:08:33;6.57;;;3.50;;
45136;SDS011;30894;51.740;19.498;2023-11-18T09:11:08;8.25;;;4.20;;
45136;SDS011;30894;51.740;19.498;2023-11-18T09:13:46;14.55;;;4.55;;
45136;SDS011;30894;51.740;19.498;2023-11-18T09:16:15;7.90;;;4.32;;
45136;SDS011;30894;51.740;19.498;2023-11-18T09:18:46;9.63;;;3.70;;
45136;SDS011;30894;51.740;19.498;2023-11-18T09:21:12;6.15;;;2.90;;
45136;SDS011;30894;51.740;19.498;2023-11-18T09:23:40;12.52;;;3.70;;
45136;SDS011;30894;51.740;19.498;2023-11-18T09:26:08;6.05;;;3.55;;
45136;SDS011;30894;51.740;19.498;2023-11-18T09:28:35;6.97;;;4.03;;
45136;SDS011;30894;51.740;19.498;2023-11-18T09:31:06;4.00;;;2.63;;
45136;SDS011;30894;51.740;19.498;2023-11-18T09:33:40;8.15;;;3.30;;
45136;SDS011;30894;51.740;19.498;2023-11-18T09:36:17;7.63;;;3.45;;
45136;SDS011;30894;51.740;19.498;2023-11-18T09:38:44;5.75;;;3.25;;
45136;SDS011;30894;51.740;19.498;2023-11-18T09:41:19;5.82;;;3.38;;
45136;SDS011;30894;51.740;19.498;2023-11-18T09:43:52;4.13;;;2.80;;
45136;SDS011;30894;51.740;19.498;2023-11-18T09:46:25;7.30;;;3.33;;
45136;SDS011;30894;51.740;19.498;2023-11-18T09:51:59;7.40;;;3.42;;
45136;SDS011;30894;51.740;19.498;2023-11-18T09:54:32;9.52;;;3.72;;
45136;SDS011;30894;51.740;19.498;2023-11-18T09:57:27;8.55;;;4.07;;
45136;SDS011;30894;51.740;19.498;2023-11-18T10:00:05;10.38;;;4.47;;
45136;SDS011;30894;51.740;19.498;2023-11-18T10:02:45;8.43;;;4.22;;
45136;SDS011;30894;51.740;19.498;2023-11-18T10:05:19;5.55;;;3.00;;
45136;SDS011;30894;51.740;19.498;2023-11-18T10:10:19;5.85;;;3.10;;
45136;SDS011;30894;51.740;19.498;2023-11-18T10:12:48;7.32;;;3.65;;
45136;SDS011;30894;51.740;19.498;2023-11-18T10:15:23;5.28;;;3.20;;
45136;SDS011;30894;51.740;19.498;2023-11-18T10:17:53;11.00;;;3.47;;
45136;SDS011;30894;51.740;19.498;2023-11-18T10:23:14;6.88;;;3.55;;
45136;SDS011;30894;51.740;19.498;2023-11-18T10:25:46;7.55;;;2.90;;
45136;SDS011;30894;51.740;19.498;2023-11-18T10:28:24;6.28;;;3.15;;
45136;SDS011;30894;51.740;19.498;2023-11-18T10:31:02;3.50;;;2.25;;
45136;SDS011;30894;51.740;19.498;2023-11-18T10:33:36;3.45;;;2.17;;
45136;SDS011;30894;51.740;19.498;2023-11-18T10:36:20;6.55;;;3.63;;
45136;SDS011;30894;51.740;19.498;2023-11-18T10:38:51;7.50;;;4.30;;
45136;SDS011;30894;51.740;19.498;2023-11-18T10:41:21;6.10;;;3.13;;
45136;SDS011;30894;51.740;19.498;2023-11-18T10:44:04;7.07;;;3.67;;
45136;SDS011;30894;51.740;19.498;2023-11-18T10:46:52;9.48;;;4.35;;
45136;SDS011;30894;51.740;19.498;2023-11-18T10:49:22;9.05;;;3.58;;
45136;SDS011;30894;51.740;19.498;2023-11-18T10:51:52;7.13;;;3.50;;
45136;SDS011;30894;51.740;19.498;2023-11-18T10:54:22;9.13;;;3.60;;
45136;SDS011;30894;51.740;19.498;2023-11-18T10:56:51;6.43;;;3.38;;
45136;SDS011;30894;51.740;19.498;2023-11-18T10:59:22;5.40;;;3.25;;
45136;SDS011;30894;51.740;19.498;2023-11-18T11:01:48;6.80;;;3.17;;
45136;SDS011;30894;51.740;19.498;2023-11-18T11:04:15;6.88;;;3.90;;
45136;SDS011;30894;51.740;19.498;2023-11-18T11:06:50;6.93;;;4.13;;
45136;SDS011;30894;51.740;19.498;2023-11-18T11:09:22;6.95;;;4.35;;
45136;SDS011;30894;51.740;19.498;2023-11-18T11:11:59;12.82;;;4.47;;
45136;SDS011;30894;51.740;19.498;2023-11-18T11:14:42;7.88;;;3.97;;
45136;SDS011;30894;51.740;19.498;2023-11-18T11:17:27;6.55;;;3.90;;
45136;SDS011;30894;51.740;19.498;2023-11-18T11:23:01;5.60;;;3.50;;
45136;SDS011;30894;51.740;19.498;2023-11-18T11:31:35;6.68;;;4.10;;
45136;SDS011;30894;51.740;19.498;2023-11-18T11:34:05;6.20;;;4.05;;
45136;SDS011;30894;51.740;19.498;2023-11-18T11:36:42;6.93;;;3.88;;
45136;SDS011;30894;51.740;19.498;2023-11-18T11:39:12;5.60;;;3.28;;
45136;SDS011;30894;51.740;19.498;2023-11-18T11:41:46;8.98;;;4.45;;
45136;SDS011;30894;51.740;19.498;2023-11-18T11:44:17;8.48;;;4.75;;
45136;SDS011;30894;51.740;19.498;2023-11-18T11:46:48;8.70;;;3.75;;
45136;SDS011;30894;51.740;19.498;2023-11-18T11:49:22;9.98;;;3.78;;
45136;SDS011;30894;51.740;19.498;2023-11-18T11:52:01;5.75;;;3.63;;
45136;SDS011;30894;51.740;19.498;2023-11-18T11:54:40;6.55;;;3.88;;
45136;SDS011;30894;51.740;19.498;2023-11-18T11:57:38;7.38;;;4.00;;
45136;SDS011;30894;51.740;19.498;2023-11-18T12:00:10;11.57;;;4.47;;
45136;SDS011;30894;51.740;19.498;2023-11-18T12:02:48;6.32;;;3.53;;
45136;SDS011;30894;51.740;19.498;2023-11-18T12:05:17;8.20;;;4.30;;
45136;SDS011;30894;51.740;19.498;2023-11-18T12:07:52;9.90;;;5.15;;
45136;SDS011;30894;51.740;19.498;2023-11-18T12:10:31;8.48;;;4.15;;
45136;SDS011;30894;51.740;19.498;2023-11-18T12:13:11;8.90;;;4.60;;
45136;SDS011;30894;51.740;19.498;2023-11-18T12:15:51;8.13;;;4.78;;
45136;SDS011;30894;51.740;19.498;2023-11-18T12:18:23;11.65;;;5.47;;
45136;SDS011;30894;51.740;19.498;2023-11-18T12:20:53;10.27;;;5.03;;
45136;SDS011;30894;51.740;19.498;2023-11-18T12:24:20;9.77;;;5.35;;
45136;SDS011;30894;51.740;19.498;2023-11-18T12:26:51;12.18;;;6.18;;
45136;SDS011;30894;51.740;19.498;2023-11-18T12:29:32;12.95;;;5.95;;
45136;SDS011;30894;51.740;19.498;2023-11-18T12:32:01;9.18;;;5.57;;
45136;SDS011;30894;51.740;19.498;2023-11-18T12:43:02;14.13;;;6.55;;
45136;SDS011;30894;51.740;19.498;2023-11-18T12:45:41;11.95;;;6.00;;
45136;SDS011;30894;51.740;19.498;2023-11-18T12:48:16;14.68;;;5.78;;
45136;SDS011;30894;51.740;19.498;2023-11-18T12:50:54;14.02;;;5.82;;
45136;SDS011;30894;51.740;19.498;2023-11-18T12:53:25;11.93;;;5.30;;
45136;SDS011;30894;51.740;19.498;2023-11-18T12:55:52;13.32;;;5.93;;
45136;SDS011;30894;51.740;19.498;2023-11-18T12:58:19;13.38;;;6.32;;
45136;SDS011;30894;51.740;19.498;2023-11-18T13:00:51;17.65;;;7.72;;
45136;SDS011;30894;51.740;19.498;2023-11-18T13:03:18;14.98;;;7.55;;
45136;SDS011;30894;51.740;19.498;2023-11-18T13:05:49;16.85;;;7.75;;
45136;SDS011;30894;51.740;19.498;2023-11-18T13:08:17;14.15;;;6.95;;
45136;SDS011;30894;51.740;19.498;2023-11-18T13:10:53;15.68;;;7.38;;
45136;SDS011;30894;51.740;19.498;2023-11-18T13:13:28;17.67;;;8.25;;
45136;SDS011;30894;51.740;19.498;2023-11-18T13:15:56;14.48;;;7.25;;
45136;SDS011;30894;51.740;19.498;2023-11-18T13:18:24;15.68;;;7.22;;
45136;SDS011;30894;51.740;19.498;2023-11-18T13:20:56;14.55;;;7.63;;
45136;SDS011;30894;51.740;19.498;2023-11-18T13:23:26;15.18;;;7.05;;
45136;SDS011;30894;51.740;19.498;2023-11-18T13:25:54;12.05;;;6.47;;
45136;SDS011;30894;51.740;19.498;2023-11-18T13:28:25;14.48;;;6.50;;
45136;SDS011;30894;51.740;19.498;2023-11-18T13:30:53;22.77;;;7.68;;
45136;SDS011;30894;51.740;19.498;2023-11-18T13:33:20;12.65;;;6.25;;
45136;SDS011;30894;51.740;19.498;2023-11-18T13:35:49;15.77;;;7.40;;
45136;SDS011;30894;51.740;19.498;2023-11-18T13:38:15;15.73;;;6.68;;
45136;SDS011;30894;51.740;19.498;2023-11-18T13:40:48;15.98;;;6.95;;
45136;SDS011;30894;51.740;19.498;2023-11-18T13:43:14;17.58;;;6.80;;
45136;SDS011;30894;51.740;19.498;2023-11-18T13:45:42;13.48;;;6.63;;
45136;SDS011;30894;51.740;19.498;2023-11-18T13:48:18;14.57;;;6.75;;
45136;SDS011;30894;51.740;19.498;2023-11-18T13:50:49;14.93;;;7.15;;
45136;SDS011;30894;51.740;19.498;2023-11-18T13:53:17;14.90;;;6.95;;
45136;SDS011;30894;51.740;19.498;2023-11-18T13:55:44;14.13;;;6.40;;
45136;SDS011;30894;51.740;19.498;2023-11-18T13:58:14;17.25;;;7.35;;
45136;SDS011;30894;51.740;19.498;2023-11-18T14:00:41;19.88;;;8.60;;
45136;SDS011;30894;51.740;19.498;2023-11-18T14:03:07;10.98;;;5.03;;
45136;SDS011;30894;51.740;19.498;2023-11-18T14:05:37;14.15;;;6.78;;
45136;SDS011;30894;51.740;19.498;2023-11-18T14:08:05;18.15;;;7.13;;
45136;SDS011;30894;51.740;19.498;2023-11-18T14:10:35;16.40;;;7.20;;
45136;SDS011;30894;51.740;19.498;2023-11-18T14:13:08;19.05;;;7.32;;
45136;SDS011;30894;51.740;19.498;2023-11-18T14:15:38;18.25;;;8.30;;
45136;SDS011;30894;51.740;19.498;2023-11-18T14:18:09;16.77;;;8.05;;
45136;SDS011;30894;51.740;19.498;2023-11-18T14:20:36;19.92;;;8.70;;
45136;SDS011;30894;51.740;19.498;2023-11-18T14:23:03;17.38;;;7.63;;
45136;SDS011;30894;51.740;19.498;2023-11-18T14:25:34;14.35;;;7.20;;
45136;SDS011;30894;51.740;19.498;2023-11-18T14:28:07;15.32;;;7.03;;
45136;SDS011;30894;51.740;19.498;2023-11-18T14:30:35;16.55;;;6.25;;
45136;SDS011;30894;51.740;19.498;2023-11-18T14:33:01;13.18;;;7.45;;
45136;SDS011;30894;51.740;19.498;2023-11-18T14:35:29;17.20;;;7.80;;
45136;SDS011;30894;51.740;19.498;2023-11-18T14:37:57;17.25;;;7.57;;
45136;SDS011;30894;51.740;19.498;2023-11-18T14:40:25;17.95;;;8.07;;
45136;SDS011;30894;51.740;19.498;2023-11-18T14:42:51;19.38;;;8.35;;
45136;SDS011;30894;51.740;19.498;2023-11-18T14:45:18;15.15;;;6.82;;
45136;SDS011;30894;51.740;19.498;2023-11-18T14:47:50;16.48;;;7.32;;
45136;SDS011;30894;51.740;19.498;2023-11-18T14:50:19;19.10;;;8.90;;
45136;SDS011;30894;51.740;19.498;2023-11-18T14:52:52;21.45;;;9.30;;
45136;SDS011;30894;51.740;19.498;2023-11-18T14:55:28;17.98;;;7.60;;
45136;SDS011;30894;51.740;19.498;2023-11-18T14:57:56;17.65;;;7.75;;
45136;SDS011;30894;51.740;19.498;2023-11-18T15:00:23;15.13;;;6.47;;
45136;SDS011;30894;51.740;19.498;2023-11-18T15:02:53;16.25;;;6.30;;
45136;SDS011;30894;51.740;19.498;2023-11-18T15:05:21;18.88;;;8.20;;
45136;SDS011;30894;51.740;19.498;2023-11-18T15:07:53;16.60;;;7.53;;
45136;SDS011;30894;51.740;19.498;2023-11-18T15:10:26;19.73;;;7.68;;
45136;SDS011;30894;51.740;19.498;2023-11-18T15:12:56;19.85;;;8.82;;
45136;SDS011;30894;51.740;19.498;2023-11-18T15:15:27;22.63;;;8.90;;
45136;SDS011;30894;51.740;19.498;2023-11-18T15:18:05;19.48;;;8.73;;
45136;SDS011;30894;51.740;19.498;2023-11-18T15:20:35;17.08;;;7.60;;
45136;SDS011;30894;51.740;19.498;2023-11-18T15:23:12;16.65;;;8.10;;
45136;SDS011;30894;51.740;19.498;2023-11-18T15:25:40;20.90;;;7.65;;